Terminal Aerodrome Forecast
Issued by NWS

Home | Current Version | Previous Version | Text Only | Print | Product List | Glossary On
Versions: 1 2 3 4 5 6 7 8 9 10 11 12 13 14 15 16 17
000
FTUS44 KMAF 061120
TAFHOB
TAF
KHOB 061120Z 0612/0712 18011KT P6SM FEW130 SCT200
     FM061900 17011G19KT P6SM SCT070 BKN130
      TEMPO 0621/0701 VRB20G30KT 4SM TSRA BKN060CB=

USA.gov is the U.S. government's official web portal to all federal, state and local government web resources and services.